Time;durP1;ratioP1;P1;durP2;ratioP2;P2;SDS_P1;SDS_P2;PMS_P1;PMS_P2;Temp;Humidity;BMP_temperature;BMP_pressure;BME280_temperature;BME280_humidity;BME280_pressure;Samples;Min_cycle;Max_cycle;Signal;HPM_P1;HPM_P2
2021/07/20 00:01:35;;;;;;;12.00;7.40;;;23.20;99.90;;;;;;4990804;28;20050;-80
2021/07/20 00:04:01;;;;;;;9.32;7.00;;;23.20;99.90;;;;;;4992721;28;20061;-80
2021/07/20 00:06:27;;;;;;;9.38;6.30;;;23.20;99.90;;;;;;4991179;28;20061;-81
2021/07/20 00:08:52;;;;;;;10.50;7.10;;;23.20;99.90;;;;;;4992702;28;20027;-80
2021/07/20 00:11:18;;;;;;;9.40;7.07;;;23.20;99.90;;;;;;4992650;28;20045;-80
2021/07/20 00:13:44;;;;;;;10.77;7.70;;;23.20;99.90;;;;;;4992514;28;20435;-80
2021/07/20 00:16:10;;;;;;;12.20;7.47;;;23.20;99.90;;;;;;4990288;28;20105;-80
2021/07/20 00:18:37;;;;;;;8.90;6.78;;;23.20;99.90;;;;;;4991916;28;20030;-80
2021/07/20 00:21:05;;;;;;;8.18;6.22;;;23.20;99.90;;;;;;4991917;28;20030;-80
2021/07/20 00:23:31;;;;;;;9.18;6.82;;;23.20;99.90;;;;;;4992033;28;20034;-79
2021/07/20 00:25:57;;;;;;;10.68;7.72;;;23.10;99.90;;;;;;4992328;28;20019;-82
2021/07/20 00:28:23;;;;;;;9.10;7.18;;;23.10;99.90;;;;;;4992607;28;20029;-79
2021/07/20 00:30:50;;;;;;;10.25;6.72;;;23.20;99.90;;;;;;4991602;28;20109;-79
2021/07/20 00:33:16;;;;;;;8.07;6.13;;;23.10;99.90;;;;;;4991766;28;20434;-80
2021/07/20 00:35:42;;;;;;;10.43;7.05;;;23.10;99.90;;;;;;5006595;28;20498;-79
2021/07/20 00:38:11;;;;;;;10.15;7.15;;;23.10;99.90;;;;;;4991847;28;20035;-79
2021/07/20 00:40:37;;;;;;;8.60;7.55;;;23.10;99.90;;;;;;4991572;28;20041;-79
2021/07/20 00:43:04;;;;;;;9.85;7.25;;;23.10;99.90;;;;;;4990607;28;20038;-80
2021/07/20 00:45:31;;;;;;;10.65;7.65;;;23.10;99.90;;;;;;4991369;28;20089;-81
2021/07/20 00:47:56;;;;;;;10.98;7.93;;;23.00;99.90;;;;;;4992222;28;20085;-80
2021/07/20 00:50:29;;;;;;;10.98;7.30;;;23.10;99.90;;;;;;4992178;28;20027;-80
2021/07/20 00:52:55;;;;;;;9.63;7.40;;;23.00;99.90;;;;;;4992541;28;20437;-80
2021/07/20 00:55:21;;;;;;;8.95;7.50;;;23.00;99.90;;;;;;4990454;28;20117;-80
2021/07/20 00:57:47;;;;;;;10.60;7.68;;;23.00;99.90;;;;;;4990754;28;20493;-79
2021/07/20 01:00:17;;;;;;;12.02;8.38;;;23.00;99.90;;;;;;4991689;28;20069;-80
2021/07/20 01:02:43;;;;;;;11.40;7.82;;;23.00;99.90;;;;;;4991568;28;20045;-79
2021/07/20 01:05:24;;;;;;;11.85;7.03;;;23.00;99.90;;;;;;4990411;28;20030;-80
2021/07/20 01:07:51;;;;;;;11.45;7.72;;;23.00;99.90;;;;;;4991507;28;20074;-79
2021/07/20 01:10:18;;;;;;;11.10;8.02;;;23.00;99.90;;;;;;4992034;28;20038;-80
2021/07/20 01:12:45;;;;;;;10.52;7.35;;;23.00;99.90;;;;;;4991197;28;20061;-81
2021/07/20 01:15:13;;;;;;;8.48;6.65;;;23.00;99.90;;;;;;4992346;28;20034;-80
2021/07/20 01:17:40;;;;;;;10.43;7.45;;;23.00;99.90;;;;;;4991120;28;20030;-82
2021/07/20 01:20:13;;;;;;;10.18;7.22;;;22.90;99.90;;;;;;4990581;28;20094;-84
2021/07/20 01:22:41;;;;;;;10.52;7.25;;;22.90;99.90;;;;;;4991615;28;20026;-83
2021/07/20 01:25:09;;;;;;;10.25;7.50;;;22.90;99.90;;;;;;4991912;28;20030;-81
2021/07/20 01:27:45;;;;;;;10.10;7.50;;;22.90;99.90;;;;;;4992014;28;20045;-83
2021/07/20 01:30:12;;;;;;;10.52;7.63;;;22.90;99.90;;;;;;4991760;28;20062;-82
2021/07/20 01:32:39;;;;;;;11.43;7.85;;;22.90;99.90;;;;;;4991330;28;20031;-80
2021/07/20 01:35:06;;;;;;;12.05;7.80;;;22.90;99.90;;;;;;4992024;28;20054;-82
2021/07/20 01:37:32;;;;;;;10.50;7.65;;;22.90;99.90;;;;;;4991687;28;20035;-81
2021/07/20 01:39:59;;;;;;;9.57;8.00;;;22.90;99.90;;;;;;4991587;28;20023;-80
2021/07/20 01:42:26;;;;;;;10.40;7.70;;;22.90;99.90;;;;;;4991907;28;20037;-80
2021/07/20 01:44:53;;;;;;;10.43;7.47;;;22.90;99.90;;;;;;4991871;28;20494;-80
2021/07/20 01:47:20;;;;;;;11.63;7.70;;;22.90;99.90;;;;;;4991426;28;20027;-80
2021/07/20 01:49:47;;;;;;;12.15;7.95;;;22.80;99.90;;;;;;5005797;28;20398;-81
2021/07/20 01:52:14;;;;;;;10.13;7.97;;;22.80;99.90;;;;;;4991272;28;20479;-81
2021/07/20 01:54:44;;;;;;;10.63;7.47;;;22.80;99.90;;;;;;4990597;28;20038;-82
2021/07/20 01:57:11;;;;;;;12.57;7.93;;;22.80;99.90;;;;;;4991127;28;20157;-83
2021/07/20 01:59:37;;;;;;;10.40;7.28;;;22.80;99.90;;;;;;4991066;28;20033;-80
2021/07/20 02:02:16;;;;;;;8.45;7.28;;;22.80;99.90;;;;;;4990788;28;20046;-83
2021/07/20 02:10:15;;;;;;;10.57;8.07;;;22.80;99.90;;;;;;4994833;28;20049;-80
2021/07/20 02:12:43;;;;;;;13.10;8.63;;;22.80;99.90;;;;;;4994859;28;20030;-81
2021/07/20 02:15:09;;;;;;;10.35;7.95;;;22.70;99.90;;;;;;4995523;28;20362;-83
2021/07/20 02:17:41;;;;;;;13.43;8.15;;;22.80;99.90;;;;;;4994322;28;20039;-80
2021/07/20 02:20:10;;;;;;;11.85;7.82;;;22.80;99.90;;;;;;4993297;28;20509;-82
2021/07/20 02:22:37;;;;;;;10.93;8.10;;;22.70;99.90;;;;;;4993355;28;20470;-83
2021/07/20 02:25:04;;;;;;;9.77;8.30;;;22.70;99.90;;;;;;4994717;28;20018;-80
2021/07/20 02:27:31;;;;;;;12.43;8.32;;;22.70;99.90;;;;;;4994566;28;20121;-81
2021/07/20 02:30:00;;;;;;;9.98;7.63;;;22.70;99.90;;;;;;4994505;28;20022;-83
2021/07/20 02:32:28;;;;;;;11.18;8.18;;;22.70;99.90;;;;;;4991505;28;20026;-80
2021/07/20 02:34:57;;;;;;;10.43;7.78;;;22.70;99.90;;;;;;4994858;28;20029;-80
2021/07/20 02:37:25;;;;;;;11.77;7.88;;;22.70;99.90;;;;;;4994227;28;20026;-79
2021/07/20 02:39:52;;;;;;;10.52;7.68;;;22.70;99.90;;;;;;4993786;28;20097;-80
2021/07/20 02:42:19;;;;;;;11.68;7.80;;;22.60;99.80;;;;;;5009180;28;20046;-80
2021/07/20 02:44:46;;;;;;;9.25;7.57;;;22.70;99.80;;;;;;4993277;28;20114;-81
2021/07/20 02:47:13;;;;;;;10.85;7.90;;;22.70;99.80;;;;;;5009414;28;20049;-81
2021/07/20 02:49:40;;;;;;;10.27;7.57;;;22.70;99.70;;;;;;4993861;28;20506;-80
2021/07/20 02:52:07;;;;;;;9.70;7.63;;;22.60;99.70;;;;;;4993921;28;20034;-81
2021/07/20 02:54:33;;;;;;;13.30;8.23;;;22.70;99.70;;;;;;4993513;28;20514;-80
2021/07/20 02:56:59;;;;;;;14.07;8.40;;;22.60;99.70;;;;;;4993667;28;20026;-81
2021/07/20 02:59:27;;;;;;;11.18;7.90;;;22.60;99.60;;;;;;4993727;28;20045;-79
2021/07/20 03:01:57;;;;;;;11.90;7.50;;;22.60;99.50;;;;;;5008610;28;20041;-81
2021/07/20 03:04:23;;;;;;;11.45;7.63;;;22.60;99.50;;;;;;4993497;28;20112;-80
2021/07/20 03:06:54;;;;;;;12.45;7.88;;;22.60;99.50;;;;;;4993590;28;20134;-81
2021/07/20 03:09:24;;;;;;;13.48;7.80;;;22.60;99.40;;;;;;4993908;28;20034;-80
2021/07/20 03:11:55;;;;;;;11.30;7.95;;;22.50;99.30;;;;;;4993704;28;20398;-80
2021/07/20 03:14:24;;;;;;;14.02;7.75;;;22.60;99.40;;;;;;4994086;28;20054;-82
2021/07/20 03:16:51;;;;;;;11.23;8.15;;;22.60;99.30;;;;;;4993008;28;20092;-81
2021/07/20 03:19:19;;;;;;;11.43;8.13;;;22.60;99.30;;;;;;4993072;28;20085;-80
2021/07/20 03:21:49;;;;;;;11.95;8.43;;;22.50;99.20;;;;;;4992548;28;20058;-81
2021/07/20 03:24:15;;;;;;;15.38;8.02;;;22.60;99.10;;;;;;4993512;28;20028;-80
2021/07/20 03:26:41;;;;;;;12.05;8.23;;;22.60;99.00;;;;;;4993260;28;20406;-80
2021/07/20 03:29:09;;;;;;;11.77;7.95;;;22.60;98.90;;;;;;4993081;28;20030;-79
2021/07/20 03:31:35;;;;;;;11.25;8.02;;;22.50;98.80;;;;;;4992676;28;20023;-80
2021/07/20 03:34:05;;;;;;;11.82;9.10;;;22.50;98.80;;;;;;4993046;28;20049;-79
2021/07/20 03:36:32;;;;;;;11.45;8.20;;;22.50;98.70;;;;;;4991571;28;20398;-81
2021/07/20 03:38:58;;;;;;;11.43;8.02;;;22.50;98.70;;;;;;4993165;28;20138;-82
2021/07/20 03:41:26;;;;;;;11.35;8.50;;;22.50;98.50;;;;;;4993559;28;20092;-80
2021/07/20 03:43:54;;;;;;;11.95;8.35;;;22.50;98.40;;;;;;4993396;28;20557;-82
2021/07/20 03:46:19;;;;;;;11.93;8.10;;;22.50;98.30;;;;;;4992804;28;20521;-82
2021/07/20 03:48:46;;;;;;;12.95;8.80;;;22.40;98.30;;;;;;4992600;28;20057;-80
2021/07/20 03:51:12;;;;;;;10.57;8.25;;;22.40;98.20;;;;;;4992604;28;20037;-81
2021/07/20 03:53:38;;;;;;;10.40;7.80;;;22.40;98.20;;;;;;4992814;28;20546;-80
2021/07/20 03:56:05;;;;;;;10.90;8.57;;;22.40;98.10;;;;;;4992478;28;20027;-79
2021/07/20 03:58:33;;;;;;;11.40;8.07;;;22.40;98.10;;;;;;4992212;28;20034;-78
2021/07/20 04:01:04;;;;;;;11.75;7.75;;;22.40;98.00;;;;;;4992405;28;20036;-78
2021/07/20 04:03:31;;;;;;;10.45;7.72;;;22.40;97.90;;;;;;4991285;28;20475;-80
2021/07/20 04:06:04;;;;;;;11.70;8.63;;;22.40;97.90;;;;;;4991993;28;20030;-86
2021/07/20 04:08:33;;;;;;;10.10;8.10;;;22.40;97.90;;;;;;4972023;28;20085;-80
2021/07/20 04:11:00;;;;;;;13.93;8.45;;;22.40;97.70;;;;;;4982511;28;20061;-81
2021/07/20 04:13:27;;;;;;;11.85;7.75;;;22.40;97.80;;;;;;4990664;28;20105;-80
2021/07/20 04:16:03;;;;;;;11.10;8.55;;;22.40;97.70;;;;;;4990286;28;20553;-80
2021/07/20 04:18:30;;;;;;;12.48;8.50;;;22.30;97.70;;;;;;4990749;28;20037;-80
2021/07/20 04:20:56;;;;;;;11.35;7.80;;;22.30;97.80;;;;;;4992029;28;20045;-81
2021/07/20 04:23:24;;;;;;;10.20;8.10;;;22.40;97.80;;;;;;4992824;28;20023;-81
2021/07/20 04:25:54;;;;;;;12.10;8.57;;;22.40;97.70;;;;;;4991740;28;20037;-80
2021/07/20 04:28:21;;;;;;;10.85;8.57;;;22.30;97.80;;;;;;4990729;28;20153;-81
2021/07/20 04:30:47;;;;;;;13.55;9.55;;;22.30;97.80;;;;;;4988139;28;20892;-81
2021/07/20 04:33:15;;;;;;;11.70;8.38;;;22.30;97.80;;;;;;5005903;28;20493;-78
2021/07/20 04:35:42;;;;;;;12.80;9.23;;;22.30;97.80;;;;;;4991299;28;20030;-78
2021/07/20 04:38:10;;;;;;;14.27;8.85;;;22.30;97.90;;;;;;4991709;28;20399;-80
2021/07/20 04:40:39;;;;;;;12.52;8.55;;;22.30;97.80;;;;;;4991532;28;20109;-81
2021/07/20 04:43:06;;;;;;;13.07;9.32;;;22.30;97.80;;;;;;4991813;28;20038;-80
2021/07/20 04:45:33;;;;;;;11.38;8.45;;;22.30;97.80;;;;;;4989777;28;20045;-80
2021/07/20 04:47:59;;;;;;;15.32;9.13;;;22.30;97.90;;;;;;4991653;28;20031;-80
2021/07/20 04:50:27;;;;;;;14.20;9.27;;;22.30;97.90;;;;;;4992007;28;20026;-81
2021/07/20 04:52:53;;;;;;;14.15;9.13;;;22.30;98.20;;;;;;4991868;28;20030;-80
2021/07/20 04:55:20;;;;;;;13.05;9.20;;;22.30;97.90;;;;;;4991588;28;20028;-81
2021/07/20 04:57:45;;;;;;;10.23;7.53;;;22.30;97.80;;;;;;4991082;28;20494;-82
2021/07/20 05:00:11;;;;;;;12.43;8.43;;;22.30;97.80;;;;;;4991314;28;20027;-80
2021/07/20 05:02:41;;;;;;;16.60;10.02;;;22.20;97.80;;;;;;4991346;28;20045;-80
2021/07/20 05:05:08;;;;;;;12.98;9.68;;;22.30;97.80;;;;;;4990490;28;20030;-80
2021/07/20 05:07:38;;;;;;;13.00;8.98;;;22.20;97.90;;;;;;4990498;28;20066;-84
2021/07/20 05:10:04;;;;;;;15.00;8.57;;;22.20;97.90;;;;;;4992132;28;20386;-84
2021/07/20 05:12:32;;;;;;;14.75;9.20;;;22.20;97.90;;;;;;4990739;28;20034;-80
2021/07/20 05:14:58;;;;;;;13.32;9.02;;;22.20;97.90;;;;;;4991796;28;20030;-81
2021/07/20 05:17:24;;;;;;;13.82;9.10;;;22.20;98.00;;;;;;4992397;28;20038;-81
2021/07/20 05:19:50;;;;;;;16.13;9.75;;;22.20;98.00;;;;;;4991481;28;20065;-81
2021/07/20 05:22:19;;;;;;;12.57;8.93;;;22.20;98.00;;;;;;4991125;28;20072;-80
2021/07/20 05:24:45;;;;;;;11.63;9.00;;;22.20;98.10;;;;;;4990721;28;20113;-79
2021/07/20 05:27:12;;;;;;;13.25;9.35;;;22.20;98.10;;;;;;4990975;28;20109;-79
2021/07/20 05:29:39;;;;;;;15.32;9.52;;;22.20;98.10;;;;;;4990828;28;20037;-80
2021/07/20 05:32:05;;;;;;;14.70;9.85;;;22.20;98.20;;;;;;4991362;28;20026;-83
2021/07/20 05:34:32;;;;;;;12.23;9.20;;;22.20;98.20;;;;;;4990187;28;20077;-83
2021/07/20 05:36:57;;;;;;;13.27;8.90;;;22.20;98.20;;;;;;4991898;28;20372;-82
2021/07/20 05:39:24;;;;;;;13.48;9.60;;;22.20;98.20;;;;;;4991747;28;20037;-81
2021/07/20 05:41:51;;;;;;;13.25;9.88;;;22.20;98.30;;;;;;4990618;28;20034;-82
2021/07/20 05:44:18;;;;;;;19.45;10.40;;;22.20;98.30;;;;;;4992532;28;20169;-83
2021/07/20 05:46:45;;;;;;;15.45;10.20;;;22.20;98.30;;;;;;4994614;28;20645;-83
2021/07/20 05:49:12;;;;;;;18.98;12.25;;;22.20;98.40;;;;;;4995568;28;20026;-79
2021/07/20 05:51:39;;;;;;;28.50;14.73;;;22.10;98.50;;;;;;4994957;28;20056;-79
2021/07/20 05:54:06;;;;;;;21.50;14.68;;;22.00;99.00;;;;;;4994822;28;20038;-79
2021/07/20 05:56:33;;;;;;;25.60;16.58;;;21.90;99.40;;;;;;4995041;28;20031;-82
2021/07/20 05:59:00;;;;;;;33.55;16.08;;;21.80;99.70;;;;;;4994657;28;20026;-80
2021/07/20 06:01:29;;;;;;;27.38;15.57;;;21.70;99.90;;;;;;4994833;28;20046;-79
2021/07/20 06:03:56;;;;;;;29.60;16.30;;;21.70;99.90;;;;;;4995465;28;20096;-87
2021/07/20 06:06:26;;;;;;;24.17;15.55;;;21.70;99.90;;;;;;4996292;28;20026;-85
2021/07/20 06:08:59;;;;;;;32.10;16.10;;;21.70;99.90;;;;;;4993990;28;20037;-87
2021/07/20 06:11:27;;;;;;;27.52;15.43;;;21.70;99.90;;;;;;4995991;28;20124;-86
2021/07/20 06:13:53;;;;;;;26.42;14.77;;;21.60;99.90;;;;;;4996306;28;20034;-85
2021/07/20 06:16:23;;;;;;;26.05;16.27;;;21.70;99.90;;;;;;4995647;28;20387;-84
2021/07/20 06:18:50;;;;;;;31.95;16.33;;;21.60;99.90;;;;;;4995080;28;20030;-79
2021/07/20 06:21:20;;;;;;;26.05;15.23;;;21.60;99.90;;;;;;4995944;28;20712;-79
2021/07/20 06:23:48;;;;;;;24.10;16.20;;;21.60;99.90;;;;;;5010517;28;20038;-79
2021/07/20 06:26:22;;;;;;;32.22;17.27;;;21.60;99.90;;;;;;4997358;28;20031;-79
2021/07/20 06:28:52;;;;;;;31.52;18.65;;;21.60;99.90;;;;;;4994449;28;20391;-79
2021/07/20 06:31:19;;;;;;;36.63;18.17;;;21.60;99.90;;;;;;4995306;28;20501;-80
2021/07/20 06:33:47;;;;;;;32.85;18.85;;;21.70;99.90;;;;;;4994519;28;20510;-88
2021/07/20 06:36:17;;;;;;;34.80;18.73;;;21.60;99.90;;;;;;4993937;28;20018;-83
2021/07/20 06:38:43;;;;;;;37.78;19.52;;;21.70;99.90;;;;;;4993621;28;20034;-80
2021/07/20 06:41:10;;;;;;;39.45;18.80;;;21.70;99.90;;;;;;4990301;28;20037;-83
2021/07/20 06:43:38;;;;;;;36.95;19.75;;;21.70;99.90;;;;;;4993962;28;20030;-79
2021/07/20 06:46:06;;;;;;;36.10;19.92;;;21.70;99.90;;;;;;5008706;28;20030;-80
2021/07/20 06:48:33;;;;;;;33.75;19.23;;;21.70;99.90;;;;;;4993914;28;20030;-80
2021/07/20 06:50:59;;;;;;;34.05;19.17;;;21.80;99.90;;;;;;4992397;28;20117;-78
2021/07/20 06:53:24;;;;;;;34.22;18.85;;;21.80;99.90;;;;;;4980327;28;20558;-77
2021/07/20 06:55:56;;;;;;;38.17;18.92;;;21.80;99.90;;;;;;4993956;28;20098;-77
2021/07/20 06:58:24;;;;;;;38.55;18.98;;;21.80;99.90;;;;;;4994402;28;20037;-76
2021/07/20 07:00:54;;;;;;;33.92;18.05;;;21.80;99.90;;;;;;4992485;28;20034;-87
2021/07/20 07:03:24;;;;;;;40.53;19.35;;;21.80;99.90;;;;;;4992797;28;20015;-80
2021/07/20 07:05:55;;;;;;;39.72;19.20;;;21.80;99.90;;;;;;4992394;28;20023;-77
2021/07/20 07:08:22;;;;;;;29.75;19.35;;;21.80;99.90;;;;;;4992469;28;20022;-75
2021/07/20 07:10:50;;;;;;;35.80;19.60;;;21.80;99.90;;;;;;4991066;28;20037;-78
2021/07/20 07:13:18;;;;;;;37.13;20.38;;;21.90;99.90;;;;;;4991686;28;20514;-79
2021/07/20 07:15:44;;;;;;;34.22;19.92;;;21.80;99.90;;;;;;5005661;28;20022;-77
2021/07/20 07:18:11;;;;;;;31.55;19.40;;;21.80;99.90;;;;;;4991988;28;20108;-76
2021/07/20 07:20:38;;;;;;;32.97;18.90;;;21.90;99.90;;;;;;4992769;28;20036;-76
2021/07/20 07:23:05;;;;;;;34.03;19.75;;;21.90;99.90;;;;;;4991798;28;20132;-76
2021/07/20 07:25:31;;;;;;;29.70;19.40;;;21.90;99.90;;;;;;4992731;28;20037;-76
2021/07/20 07:27:57;;;;;;;35.60;20.58;;;21.90;99.90;;;;;;4992184;28;20022;-76
2021/07/20 07:30:24;;;;;;;31.30;19.08;;;21.90;99.90;;;;;;4992155;28;20027;-76
2021/07/20 07:32:49;;;;;;;32.38;20.48;;;21.90;99.90;;;;;;4992329;28;20386;-76
2021/07/20 07:35:15;;;;;;;33.88;18.65;;;21.90;99.90;;;;;;4992549;28;20503;-76
2021/07/20 07:37:43;;;;;;;29.23;18.52;;;21.90;99.90;;;;;;4992024;28;20038;-76
2021/07/20 07:40:12;;;;;;;30.75;19.48;;;21.90;99.90;;;;;;5003967;28;20026;-75
2021/07/20 07:42:39;;;;;;;31.67;19.58;;;21.90;99.90;;;;;;4992057;28;20030;-75
2021/07/20 07:45:08;;;;;;;30.45;17.65;;;21.90;99.90;;;;;;4992860;28;20361;-76
2021/07/20 07:47:36;;;;;;;26.55;17.95;;;21.90;99.90;;;;;;4992397;28;20113;-77
2021/07/20 07:50:06;;;;;;;29.27;18.10;;;21.90;99.90;;;;;;4991734;28;20105;-76
2021/07/20 07:52:33;;;;;;;27.48;16.67;;;21.90;99.90;;;;;;4992778;28;20105;-77
2021/07/20 07:54:59;;;;;;;24.17;16.67;;;22.00;99.90;;;;;;4991968;28;20030;-76
2021/07/20 07:57:25;;;;;;;26.27;15.90;;;22.00;99.90;;;;;;4992035;28;20018;-76
2021/07/20 07:59:55;;;;;;;22.30;16.10;;;22.00;99.90;;;;;;4992161;28;20037;-75
2021/07/20 08:02:28;;;;;;;23.02;16.02;;;22.00;99.90;;;;;;4973195;28;20041;-75
2021/07/20 08:04:55;;;;;;;25.52;16.80;;;22.00;99.90;;;;;;4995130;28;20418;-76
2021/07/20 08:07:23;;;;;;;22.48;15.48;;;22.00;99.90;;;;;;4991729;28;20418;-76
2021/07/20 08:09:51;;;;;;;23.92;15.80;;;22.00;99.90;;;;;;4992395;28;20023;-76
2021/07/20 08:12:17;;;;;;;25.50;16.27;;;22.00;99.90;;;;;;4991857;28;20030;-76
2021/07/20 08:14:43;;;;;;;20.50;15.05;;;22.00;99.90;;;;;;4990755;28;20157;-76
2021/07/20 08:17:10;;;;;;;19.80;13.38;;;22.00;99.90;;;;;;4990646;28;20133;-76
2021/07/20 08:19:40;;;;;;;21.95;14.93;;;22.00;99.90;;;;;;4991869;28;20033;-76
2021/07/20 08:22:10;;;;;;;24.17;14.85;;;22.00;99.90;;;;;;4992400;28;20125;-77
2021/07/20 08:24:45;;;;;;;20.40;13.93;;;22.00;99.90;;;;;;4992101;28;20368;-76
2021/07/20 08:27:19;;;;;;;22.80;14.90;;;22.00;99.90;;;;;;4992348;28;20367;-76
2021/07/20 08:29:50;;;;;;;21.17;14.18;;;22.10;99.90;;;;;;4991783;28;20033;-76
2021/07/20 08:32:20;;;;;;;24.95;14.52;;;22.10;99.90;;;;;;4991580;28;20038;-75
2021/07/20 08:34:50;;;;;;;22.77;14.63;;;22.10;99.90;;;;;;4988413;28;20030;-76
2021/07/20 08:37:19;;;;;;;21.77;14.85;;;22.10;99.90;;;;;;4992155;28;20097;-75
2021/07/20 08:39:48;;;;;;;20.70;14.63;;;22.10;99.90;;;;;;4991687;28;20026;-75
2021/07/20 08:42:53;;;;;;;17.83;13.45;;;22.10;99.90;;;;;;4990876;28;20578;-76
2021/07/20 08:45:29;;;;;;;19.63;13.63;;;22.10;99.90;;;;;;4991994;28;20031;-75
2021/07/20 08:48:17;;;;;;;20.08;13.40;;;22.10;99.90;;;;;;4992138;28;20647;-75
2021/07/20 08:50:45;;;;;;;19.50;14.30;;;22.10;99.90;;;;;;4991727;28;20041;-75
2021/07/20 08:53:18;;;;;;;23.73;15.90;;;22.10;99.90;;;;;;4991978;28;20022;-74
2021/07/20 08:55:48;;;;;;;19.63;14.10;;;22.20;99.90;;;;;;4991666;28;20118;-75
2021/07/20 08:58:30;;;;;;;18.45;13.68;;;22.20;99.90;;;;;;4991869;28;20023;-74
2021/07/20 09:01:10;;;;;;;20.90;14.18;;;22.20;99.90;;;;;;4991986;28;20124;-74
2021/07/20 09:03:43;;;;;;;22.02;13.60;;;22.20;99.90;;;;;;4991382;28;20084;-74
2021/07/20 09:06:17;;;;;;;17.15;12.32;;;22.20;99.90;;;;;;4990419;28;20019;-74
2021/07/20 09:09:03;;;;;;;22.00;13.80;;;22.20;99.90;;;;;;4991555;28;20442;-74
2021/07/20 09:11:28;;;;;;;17.38;13.13;;;22.20;99.90;;;;;;4991297;28;20038;-74
2021/07/20 09:14:12;;;;;;;17.73;13.88;;;22.20;99.90;;;;;;4992090;28;20509;-76
2021/07/20 09:16:45;;;;;;;18.40;13.38;;;22.20;99.90;;;;;;4991399;28;20026;-75
2021/07/20 09:19:28;;;;;;;20.13;13.95;;;22.20;99.90;;;;;;4993137;28;20025;-76
2021/07/20 09:22:03;;;;;;;20.60;13.27;;;22.30;99.90;;;;;;4995986;28;20057;-76
2021/07/20 09:24:38;;;;;;;17.65;13.05;;;22.30;99.90;;;;;;4994763;28;20034;-75
2021/07/20 09:27:13;;;;;;;16.65;12.88;;;22.30;99.90;;;;;;4995317;28;20037;-75
2021/07/20 09:29:41;;;;;;;18.15;13.18;;;22.30;99.90;;;;;;4994898;28;20486;-75
2021/07/20 09:32:09;;;;;;;18.88;12.50;;;22.30;99.90;;;;;;4995541;28;20034;-77
2021/07/20 09:35:07;;;;;;;18.92;11.95;;;22.30;99.90;;;;;;5009610;28;20031;-76
2021/07/20 09:37:40;;;;;;;17.88;12.27;;;22.30;99.90;;;;;;4995124;28;20040;-77
2021/07/20 09:40:44;;;;;;;19.63;12.10;;;22.30;99.90;;;;;;4995154;28;20031;-77
2021/07/20 09:43:47;;;;;;;14.23;11.00;;;22.40;99.90;;;;;;5009817;28;20414;-76
2021/07/20 09:46:19;;;;;;;14.50;11.00;;;22.40;99.90;;;;;;4995293;28;20081;-75
2021/07/20 09:48:53;;;;;;;15.55;10.95;;;22.40;99.90;;;;;;4994455;28;20110;-75
2021/07/20 09:51:40;;;;;;;17.08;12.23;;;22.40;99.90;;;;;;4995132;28;20057;-76
2021/07/20 09:54:41;;;;;;;18.33;12.43;;;22.40;99.90;;;;;;4995120;28;20033;-76
2021/07/20 09:57:16;;;;;;;16.00;11.52;;;22.40;99.90;;;;;;5012496;28;20094;-76
2021/07/20 10:00:08;;;;;;;14.05;10.90;;;22.40;99.90;;;;;;4996779;28;20477;-77
2021/07/20 10:02:46;;;;;;;17.33;10.93;;;22.40;99.90;;;;;;4994693;28;20501;-76
2021/07/20 10:05:15;;;;;;;14.52;10.15;;;22.50;99.90;;;;;;4992987;28;20080;-77
2021/07/20 10:07:42;;;;;;;14.55;11.52;;;22.40;99.90;;;;;;4993072;28;20109;-76
2021/07/20 10:10:14;;;;;;;14.90;10.18;;;22.50;99.90;;;;;;4994367;28;20478;-76
2021/07/20 10:13:02;;;;;;;16.15;10.98;;;22.50;99.90;;;;;;4993107;28;20042;-76
2021/07/20 10:15:48;;;;;;;15.80;10.80;;;22.50;99.90;;;;;;4992972;28;20038;-76
2021/07/20 10:18:22;;;;;;;14.27;10.75;;;22.60;99.90;;;;;;4993398;28;20038;-77
2021/07/20 10:20:55;;;;;;;17.30;10.82;;;22.60;99.90;;;;;;4993007;28;20041;-77
2021/07/20 10:23:25;;;;;;;14.68;11.20;;;22.60;99.90;;;;;;4993251;28;20109;-76
2021/07/20 10:26:07;;;;;;;24.33;14.90;;;22.60;99.90;;;;;;4993154;28;20501;-75
2021/07/20 10:29:00;;;;;;;28.77;21.58;;;22.70;99.90;;;;;;4993046;28;20491;-77
2021/07/20 10:31:33;;;;;;;36.72;24.02;;;22.60;99.90;;;;;;4992950;28;20487;-77
2021/07/20 10:34:13;;;;;;;25.13;18.13;;;22.70;99.90;;;;;;4992210;28;20038;-77
2021/07/20 10:36:47;;;;;;;24.55;18.42;;;22.70;99.90;;;;;;4989699;28;20070;-78
2021/07/20 10:39:18;;;;;;;34.65;24.25;;;22.70;99.90;;;;;;4991733;28;20041;-78
2021/07/20 10:42:14;;;;;;;30.67;21.00;;;22.70;99.90;;;;;;4991239;28;20113;-77
2021/07/20 10:44:46;;;;;;;31.65;21.00;;;22.80;99.90;;;;;;4991001;28;20029;-75
2021/07/20 10:47:16;;;;;;;31.58;19.70;;;22.80;99.90;;;;;;4992663;28;20034;-75
2021/07/20 10:49:56;;;;;;;26.40;19.50;;;22.80;99.90;;;;;;4992124;28;20019;-76
2021/07/20 10:52:31;;;;;;;34.17;21.73;;;22.80;99.90;;;;;;4983548;28;20026;-76
2021/07/20 10:55:08;;;;;;;30.25;20.48;;;22.80;99.90;;;;;;4992955;28;20422;-77
2021/07/20 10:57:45;;;;;;;30.63;17.80;;;22.90;99.90;;;;;;4992302;28;20026;-76
2021/07/20 11:00:16;;;;;;;26.25;17.15;;;22.90;99.90;;;;;;4992599;28;20030;-76
2021/07/20 11:02:57;;;;;;;25.20;17.45;;;22.90;99.90;;;;;;4990900;28;20438;-76
2021/07/20 11:05:26;;;;;;;23.08;16.67;;;22.90;99.90;;;;;;4993129;28;20372;-78
2021/07/20 11:07:59;;;;;;;21.77;16.75;;;23.00;99.90;;;;;;4992596;28;20023;-78
2021/07/20 11:13:13;;;;;;;;;;;23.00;99.90;;;;;;5088824;28;20401;-79
2021/07/20 11:15:41;;;;;;;18.95;13.07;;;23.00;99.90;;;;;;5087828;28;19908;-81
2021/07/20 11:18:13;;;;;;;19.30;13.85;;;23.00;99.90;;;;;;5086145;28;20024;-83
2021/07/20 11:20:41;;;;;;;18.92;14.10;;;23.00;99.90;;;;;;5088055;28;20089;-83
2021/07/20 11:23:09;;;;;;;17.85;12.75;;;23.00;99.90;;;;;;5087013;28;20419;-79
2021/07/20 11:25:37;;;;;;;24.95;13.02;;;23.10;99.90;;;;;;5088340;28;20488;-79
2021/07/20 11:28:04;;;;;;;16.67;13.38;;;23.10;99.90;;;;;;5088612;28;20422;-77
2021/07/20 11:30:33;;;;;;;18.98;13.00;;;23.10;99.90;;;;;;5086220;28;20027;-77
2021/07/20 11:33:15;;;;;;;17.90;13.02;;;23.10;99.90;;;;;;5086251;28;20054;-80
2021/07/20 11:35:44;;;;;;;17.80;13.07;;;23.10;99.90;;;;;;5085177;28;20471;-79
2021/07/20 11:38:12;;;;;;;17.77;12.02;;;23.20;99.90;;;;;;5087532;28;20479;-77
2021/07/20 11:41:09;;;;;;;16.92;12.35;;;23.20;99.90;;;;;;5086442;28;20433;-77
2021/07/20 11:44:00;;;;;;;17.15;11.38;;;23.20;99.90;;;;;;5079418;28;20034;-79
2021/07/20 11:46:35;;;;;;;16.90;12.05;;;23.30;99.90;;;;;;5086943;28;20020;-82
2021/07/20 11:49:11;;;;;;;14.70;11.60;;;23.20;99.90;;;;;;5086518;28;20093;-79
2021/07/20 11:51:51;;;;;;;16.50;11.00;;;23.30;99.90;;;;;;5086861;28;20025;-79
2021/07/20 11:54:29;;;;;;;15.13;10.70;;;23.30;99.90;;;;;;5076521;28;20040;-83
2021/07/20 11:56:58;;;;;;;14.85;11.25;;;23.30;99.90;;;;;;5099740;28;20020;-79
2021/07/20 11:59:23;;;;;;;15.95;11.25;;;23.30;99.90;;;;;;5102925;28;20044;-81
2021/07/20 12:02:33;;;;;;;13.38;10.23;;;23.30;99.90;;;;;;5086619;28;20116;-76
2021/07/20 12:05:21;;;;;;;12.98;10.13;;;23.30;99.90;;;;;;5109905;28;20094;-77
2021/07/20 12:07:58;;;;;;;13.55;9.73;;;23.30;99.90;;;;;;5082739;28;20020;-77
2021/07/20 12:10:52;;;;;;;13.35;10.18;;;23.40;99.90;;;;;;5087121;28;20383;-78
2021/07/20 12:13:20;;;;;;;15.15;11.35;;;23.30;99.90;;;;;;5071024;28;21320;-85
2021/07/20 12:15:46;;;;;;;14.00;10.30;;;23.30;99.90;;;;;;5087286;28;20050;-77
2021/07/20 12:18:12;;;;;;;13.65;10.57;;;23.40;99.90;;;;;;5087607;28;20104;-79
2021/07/20 12:20:41;;;;;;;12.55;9.43;;;23.40;99.90;;;;;;5086100;28;20107;-78
2021/07/20 12:23:10;;;;;;;17.52;10.35;;;23.40;99.90;;;;;;5081686;28;20016;-79
2021/07/20 12:25:36;;;;;;;13.45;9.98;;;23.40;99.90;;;;;;5073471;28;20024;-78
2021/07/20 12:28:02;;;;;;;12.40;9.75;;;23.40;99.90;;;;;;5073643;28;20082;-79
2021/07/20 12:30:30;;;;;;;14.00;10.50;;;23.40;99.90;;;;;;5073635;28;20024;-78
2021/07/20 12:32:56;;;;;;;12.77;9.60;;;23.40;99.90;;;;;;5074020;28;20029;-77
2021/07/20 12:35:24;;;;;;;12.88;8.90;;;23.40;99.90;;;;;;5073994;28;20098;-78
2021/07/20 12:38:02;;;;;;;11.10;9.00;;;23.40;99.90;;;;;;5073221;28;20021;-78
2021/07/20 12:40:28;;;;;;;11.70;9.70;;;23.40;99.90;;;;;;5073260;28;20028;-79
2021/07/20 12:42:53;;;;;;;12.32;8.90;;;23.40;99.90;;;;;;5073951;28;20029;-79
2021/07/20 12:45:21;;;;;;;11.30;9.18;;;23.40;99.90;;;;;;5073560;28;20396;-79
2021/07/20 12:47:48;;;;;;;11.40;8.85;;;23.40;99.90;;;;;;5073008;28;20086;-76
2021/07/20 12:50:19;;;;;;;13.88;10.27;;;23.40;99.90;;;;;;5071971;28;20119;-78
2021/07/20 12:52:47;;;;;;;11.02;9.30;;;23.40;99.90;;;;;;5072992;28;20032;-78
2021/07/20 12:55:18;;;;;;;11.38;8.95;;;23.40;99.90;;;;;;5072720;28;20025;-77
2021/07/20 12:57:57;;;;;;;11.95;9.25;;;23.40;99.90;;;;;;5072109;28;20033;-80